Impacts TAF Board
For situational awareness. Not to be used for flight planning purposes.
IDs:

KALS - Alamosa/Bergman Fld, CO, US

Issued at 1740 UTC 02 Aug 2021
Updated at 2159 UTC 02 Aug 2021
Potential Impact None Slight Moderate High
Time2152Z 02/22Z 02/23Z 03/00Z 03/01Z 03/02Z 03/03Z 03/04Z 03/05Z 03/06Z 03/07Z 03/08Z 03/09Z 03/10Z>>
Type OBS PRVL PRVL PRVL PRVL PRVL PRVL PRVL PRVL PRVL PRVL PRVL PRVL PRVL
VIS 10 >6 5 5 >6 >6 >6 >6 >6 >6 >6 >6 >6 >6
CIG 90 60 60 60 90 90 90 90 100 100 100 100 100 100
Cover BKN BKN BKN BKN OVC OVC OVC OVC BKN BKN BKN BKN BKN BKN
FltCat VFR VFR MVFR MVFR VFR VFR VFR VFR VFR VFR VFR VFR VFR VFR
WX -- VCSH -SHRA VCTS -SHRA VCTS VCSH VCSH VCSH VCSH -- -- -- -- -- --
WDir 280 260 210 210 130 130 130 130 VRB VRB VRB VRB VRB VRB
WSpd 19 10 10 10 9 9 9 9 4 4 4 4 4 4
WGst 25 20 20 20 -- -- -- -- -- -- -- -- -- --
Raw TAF
KALS 021740Z 0218/0318 VRB05KT P6SM OVC050
  FM022100 26010G20KT P6SM VCSH BKN060 BKN200
  FM022300 21010G20KT 5SM -SHRA VCTS SCT040CB BKN060 BKN250
  FM030100 13009KT P6SM VCSH SCT050 OVC090
  FM030500 VRB04KT P6SM SCT060 BKN100
  FM031200 VRB03KT P6SM BKN110 BKN200


Raw METAR
KALS 022152Z AUTO 28019G25KT 10SM FEW050 BKN090 BKN110 22/12 A3038 RMK AO2 LTG DSNT S AND SW SLP197 T02220117
KALS 022052Z AUTO 34004KT 10SM SCT110 26/12 A3039 RMK AO2 SLP193 T02560117 56020
KALS 021952Z AUTO 05006KT 10SM BKN100 25/11 A3041 RMK AO2 SLP203 T02500111
KALS 021852Z AUTO 10SM FEW047 24/11 A3044 RMK AO2 SLP210 T02390106

METAR Board
Radar Display
Forecast Discussion
For situational awareness. Not to be used for flight planning purposes.